Angwin, California
Current Conditions -  °F | °C
As of 12:53 PM on Sunday 23 Nov 2014 (Local Time) from KSTS Reporting Station
Broken Clouds Broken Clouds  
Wind Chill: 17°   Ceiling: 15000
Heat Index: 17°   Visibility: 10mi
Dew Point:   Wind: 6mph
Humidity: 46%   Direction: NA
Pressure: 30.28"   Gusts: NA
Location:  38.58°N, 122.45°W
Report Text: KSTS 232053Z VRB05KT 10SM BKN150 17/06 A3028 RMK AO2 SLP247 T01720056 58019
Loading
Personal Weather Stations






























Interactive Weather Map New forecast layout! Learn more

10-Day Weather Forecast

Advertisements
Track Severe Weather on mobile